Terminal Aerodrome Forecast
Issued by NWS Sioux Falls, SD

Home | Current Version | Previous Version | Text Only | Print | Product List | Glossary On
Versions: 1 2 3 4 5 6 7 8 9 10 11 12
084
FTUS43 KFSD 041124
TAFFSD
TAF
KFSD 041124Z 0412/0512 35008KT P6SM SKC
     FM041530 35012G17KT P6SM SKC
     FM050000 34007KT P6SM SKC
     FM050300 VRB03KT P6SM SKC=

USA.gov is the U.S. government's official web portal to all federal, state and local government web resources and services.